Time;durP1;ratioP1;P1;durP2;ratioP2;P2;SDS_P1;SDS_P2;PMS_P1;PMS_P2;Temp;Humidity;BMP_temperature;BMP_pressure;BME280_temperature;BME280_humidity;BME280_pressure;Samples;Min_cycle;Max_cycle;Signal;HPM_P1;HPM_P2
2023/01/30 00:01:35;;;;;;;50.80;28.95;;;6.30;99.90;;;;;;5005296;28;20096;-46
2023/01/30 00:04:05;;;;;;;54.05;29.15;;;6.30;99.90;;;;;;5008174;28;20096;-46
2023/01/30 00:06:31;;;;;;;47.80;25.50;;;6.30;99.90;;;;;;5009703;28;20049;-46
2023/01/30 00:08:58;;;;;;;48.80;25.20;;;6.40;99.90;;;;;;5009371;28;20147;-41
2023/01/30 00:11:27;;;;;;;45.92;25.65;;;6.40;99.90;;;;;;5009595;28;20049;-47
2023/01/30 00:13:54;;;;;;;46.50;25.42;;;6.40;99.90;;;;;;5006898;28;20471;-47
2023/01/30 00:16:21;;;;;;;41.33;24.55;;;6.40;99.90;;;;;;5007445;28;20046;-47
2023/01/30 00:18:48;;;;;;;47.28;24.15;;;6.40;99.90;;;;;;5008035;28;20049;-47
2023/01/30 00:21:16;;;;;;;44.17;24.13;;;6.50;99.90;;;;;;5007690;28;20123;-42
2023/01/30 00:23:43;;;;;;;45.85;25.58;;;6.50;99.90;;;;;;5008213;28;20066;-45
2023/01/30 00:26:10;;;;;;;46.05;24.42;;;6.50;99.90;;;;;;5007750;28;20077;-50
2023/01/30 00:28:37;;;;;;;48.10;25.77;;;6.50;99.90;;;;;;5006827;28;20077;-49
2023/01/30 00:31:03;;;;;;;46.72;24.60;;;6.60;99.90;;;;;;5008326;28;20469;-41
2023/01/30 00:33:30;;;;;;;39.72;24.00;;;6.50;99.90;;;;;;5008539;28;20505;-48
2023/01/30 00:35:57;;;;;;;39.40;24.00;;;6.50;99.90;;;;;;5009582;28;20463;-46
2023/01/30 00:38:25;;;;;;;42.38;23.90;;;6.50;99.90;;;;;;5008072;28;20088;-47
2023/01/30 00:40:52;;;;;;;45.42;23.90;;;6.60;99.90;;;;;;5007622;28;20061;-43
2023/01/30 00:48:49;;;;;;;42.78;22.10;;;6.50;99.90;;;;;;5008785;28;20046;-42
2023/01/30 00:51:16;;;;;;;32.97;20.40;;;6.50;99.90;;;;;;5006286;28;20489;-48
2023/01/30 00:53:44;;;;;;;39.33;21.20;;;6.60;99.90;;;;;;5007802;28;20124;-47
2023/01/30 00:56:11;;;;;;;39.90;18.30;;;6.60;99.90;;;;;;5008735;28;20054;-42
2023/01/30 00:58:38;;;;;;;35.28;18.13;;;6.60;99.90;;;;;;5008435;28;20121;-50
2023/01/30 01:01:05;;;;;;;37.42;18.85;;;6.60;99.90;;;;;;5010600;28;20685;-46
2023/01/30 01:03:32;;;;;;;30.58;16.50;;;6.70;99.90;;;;;;5012503;28;20062;-43
2023/01/30 01:05:59;;;;;;;30.52;14.55;;;6.70;99.90;;;;;;5005687;28;20058;-43
2023/01/30 01:08:28;;;;;;;29.13;13.80;;;6.70;99.90;;;;;;5008188;28;20065;-45
2023/01/30 01:10:56;;;;;;;33.03;12.05;;;6.80;99.90;;;;;;5008259;28;20513;-46
2023/01/30 01:13:23;;;;;;;32.22;12.48;;;6.80;99.90;;;;;;5010573;28;20042;-55
2023/01/30 01:15:50;;;;;;;25.80;12.15;;;6.90;99.90;;;;;;5007464;28;20073;-58
2023/01/30 01:18:17;;;;;;;25.58;12.13;;;6.90;99.90;;;;;;5007729;28;20387;-47
2023/01/30 01:20:43;;;;;;;26.20;12.38;;;6.90;99.90;;;;;;5006035;28;20104;-45
2023/01/30 01:23:10;;;;;;;30.73;13.15;;;6.90;99.90;;;;;;5004534;28;20520;-50
2023/01/30 01:25:37;;;;;;;31.95;12.35;;;6.90;99.90;;;;;;5007721;28;20058;-51
2023/01/30 01:28:05;;;;;;;30.95;12.27;;;6.90;99.90;;;;;;5007212;28;20061;-48
2023/01/30 01:30:32;;;;;;;24.67;11.40;;;6.90;99.90;;;;;;5007155;28;20119;-49
2023/01/30 01:32:59;;;;;;;23.65;12.35;;;6.90;99.90;;;;;;5006252;28;20078;-53
2023/01/30 01:35:26;;;;;;;29.55;12.07;;;6.90;99.90;;;;;;5006661;28;20054;-49
2023/01/30 01:37:53;;;;;;;24.67;12.40;;;6.90;99.90;;;;;;5010523;28;20104;-52
2023/01/30 01:43:16;;;;;;;22.67;10.90;;;6.90;99.90;;;;;;5007698;28;20046;-50
2023/01/30 01:45:43;;;;;;;30.30;11.57;;;6.90;99.90;;;;;;5007820;28;20062;-52
2023/01/30 01:48:12;;;;;;;22.67;10.30;;;6.90;99.90;;;;;;5006865;28;20544;-55
2023/01/30 01:50:42;;;;;;;21.67;10.48;;;6.80;99.90;;;;;;5009747;28;20136;-50
2023/01/30 01:53:09;;;;;;;27.85;10.10;;;6.90;99.90;;;;;;5005506;28;20057;-46
2023/01/30 01:55:36;;;;;;;21.88;9.20;;;6.90;99.90;;;;;;5004988;28;20461;-55
2023/01/30 01:58:04;;;;;;;21.17;8.85;;;6.90;99.90;;;;;;5007591;28;20037;-45
2023/01/30 02:00:32;;;;;;;18.05;8.65;;;6.90;99.90;;;;;;5007595;28;20100;-54
2023/01/30 02:03:01;;;;;;;18.05;7.38;;;6.90;99.90;;;;;;5006882;28;20189;-55
2023/01/30 02:05:34;;;;;;;18.17;7.20;;;6.80;99.90;;;;;;5005516;28;20081;-54
2023/01/30 02:08:03;;;;;;;16.63;6.53;;;6.90;99.90;;;;;;5005672;28;20089;-49
2023/01/30 02:10:33;;;;;;;16.17;6.57;;;6.90;99.90;;;;;;5005676;28;20511;-57
2023/01/30 02:13:00;;;;;;;13.85;6.18;;;6.90;99.90;;;;;;5007151;28;20073;-57
2023/01/30 02:15:27;;;;;;;17.33;6.38;;;6.90;99.90;;;;;;5006942;28;20050;-46
2023/01/30 02:17:55;;;;;;;21.77;6.35;;;6.90;99.90;;;;;;5005505;28;20045;-42
2023/01/30 02:20:27;;;;;;;21.35;7.32;;;6.90;99.90;;;;;;5007447;28;20085;-57
2023/01/30 02:23:14;;;;;;;19.67;7.07;;;6.90;99.90;;;;;;5006527;28;20050;-51
2023/01/30 02:26:22;;;;;;;16.75;7.13;;;6.90;99.90;;;;;;5007556;28;20139;-59
2023/01/30 02:29:01;;;;;;;16.38;5.95;;;6.90;99.90;;;;;;4989661;28;20073;-63
2023/01/30 02:31:32;;;;;;;15.32;6.30;;;6.90;99.90;;;;;;5011536;28;20042;-62
2023/01/30 02:34:06;;;;;;;16.48;6.20;;;6.90;99.90;;;;;;5008717;28;20073;-50
2023/01/30 02:36:37;;;;;;;13.23;5.13;;;6.90;99.90;;;;;;5010358;28;20112;-60
2023/01/30 02:39:08;;;;;;;19.23;5.65;;;7.00;99.90;;;;;;5011027;28;20152;-45
2023/01/30 02:41:37;;;;;;;19.92;6.22;;;7.00;99.90;;;;;;5009055;28;20531;-50
2023/01/30 02:44:04;;;;;;;15.63;5.25;;;6.90;99.90;;;;;;5008385;28;20096;-56
2023/01/30 02:46:39;;;;;;;17.90;5.80;;;7.00;99.90;;;;;;5010311;28;20046;-49
2023/01/30 02:49:07;;;;;;;18.80;5.35;;;7.00;99.90;;;;;;5013391;28;20128;-52
2023/01/30 02:51:35;;;;;;;19.67;6.07;;;7.00;99.90;;;;;;5009917;28;20586;-44
2023/01/30 02:54:03;;;;;;;25.42;6.47;;;7.00;99.90;;;;;;5007561;28;20100;-56
2023/01/30 02:56:30;;;;;;;18.58;5.50;;;7.00;99.90;;;;;;5013213;28;20060;-54
2023/01/30 02:59:00;;;;;;;20.80;5.72;;;7.00;99.90;;;;;;5011248;28;20074;-56
2023/01/30 03:01:38;;;;;;;19.80;5.75;;;7.00;99.90;;;;;;5014061;28;21708;-56
2023/01/30 03:04:27;;;;;;;19.50;5.97;;;7.00;99.90;;;;;;5015070;28;20123;-57
2023/01/30 03:07:08;;;;;;;19.52;5.97;;;7.10;99.90;;;;;;5014543;28;20050;-49
2023/01/30 03:09:40;;;;;;;20.02;5.53;;;7.10;99.90;;;;;;5012882;28;20494;-57
2023/01/30 03:12:09;;;;;;;21.45;5.90;;;7.10;99.90;;;;;;5010701;28;20049;-56
2023/01/30 03:14:39;;;;;;;25.73;5.82;;;7.10;99.90;;;;;;5008651;28;20109;-56
2023/01/30 03:17:07;;;;;;;26.80;6.28;;;7.10;99.90;;;;;;5009971;28;20791;-56
2023/01/30 03:19:34;;;;;;;22.67;6.03;;;7.10;99.90;;;;;;5009652;28;20078;-51
2023/01/30 03:22:01;;;;;;;25.33;6.28;;;7.10;99.90;;;;;;5010179;28;20042;-55
2023/01/30 03:24:28;;;;;;;23.80;6.80;;;7.10;99.90;;;;;;5011455;28;20132;-54
2023/01/30 03:26:56;;;;;;;30.40;5.93;;;7.10;99.90;;;;;;5008726;28;20441;-56
2023/01/30 03:29:22;;;;;;;24.85;6.43;;;7.10;99.90;;;;;;5007788;28;20073;-49
2023/01/30 03:31:49;;;;;;;31.58;6.68;;;7.10;99.90;;;;;;5010404;28;20046;-52
2023/01/30 03:34:17;;;;;;;28.15;5.90;;;7.10;99.90;;;;;;5010273;28;20077;-56
2023/01/30 03:36:44;;;;;;;33.38;6.13;;;7.10;99.90;;;;;;5010540;28;20050;-54
2023/01/30 03:39:11;;;;;;;25.27;6.85;;;7.20;99.90;;;;;;5010040;28;20112;-46
2023/01/30 03:41:38;;;;;;;28.27;6.07;;;7.20;99.90;;;;;;5006360;28;20054;-57
2023/01/30 03:44:05;;;;;;;22.63;5.40;;;7.20;99.90;;;;;;5004846;28;20096;-58
2023/01/30 03:46:32;;;;;;;27.42;6.35;;;7.20;99.90;;;;;;5007140;28;20077;-54
2023/01/30 03:48:59;;;;;;;22.23;6.45;;;7.20;99.90;;;;;;5009315;28;20107;-56
2023/01/30 03:51:27;;;;;;;26.73;5.03;;;7.20;99.90;;;;;;5011191;28;20045;-57
2023/01/30 03:53:54;;;;;;;25.30;5.57;;;7.20;99.90;;;;;;5009310;28;20049;-55
2023/01/30 03:56:21;;;;;;;24.58;5.47;;;7.20;99.90;;;;;;5008332;28;20092;-58
2023/01/30 03:58:47;;;;;;;28.25;5.45;;;7.20;99.90;;;;;;5008980;28;20112;-53
2023/01/30 04:01:14;;;;;;;26.20;5.15;;;7.20;99.90;;;;;;5008922;28;20058;-56
2023/01/30 04:03:41;;;;;;;26.20;5.00;;;7.20;99.90;;;;;;5007866;28;20054;-58
2023/01/30 04:06:08;;;;;;;21.15;5.07;;;7.20;99.90;;;;;;5008520;28;20155;-58
2023/01/30 04:08:36;;;;;;;35.25;5.63;;;7.20;99.90;;;;;;5008573;28;20143;-58
2023/01/30 04:11:03;;;;;;;31.58;5.85;;;7.10;99.90;;;;;;5008699;28;20085;-59
2023/01/30 04:13:29;;;;;;;29.42;5.55;;;7.20;99.90;;;;;;5008048;28;20136;-55
2023/01/30 04:16:15;;;;;;;30.42;5.63;;;7.20;99.90;;;;;;5009640;28;20046;-56
2023/01/30 04:18:42;;;;;;;34.22;5.43;;;7.20;99.90;;;;;;5006055;28;20528;-53
2023/01/30 04:21:09;;;;;;;35.45;5.93;;;7.10;99.90;;;;;;5009304;28;20078;-57
2023/01/30 04:23:37;;;;;;;28.88;4.90;;;7.10;99.90;;;;;;5009529;28;20101;-56
2023/01/30 04:26:04;;;;;;;27.50;5.60;;;7.10;99.90;;;;;;5006112;28;20053;-56
2023/01/30 04:28:31;;;;;;;24.08;4.93;;;7.10;99.90;;;;;;5008156;28;20053;-55
2023/01/30 04:30:57;;;;;;;24.38;4.90;;;7.10;99.90;;;;;;5007306;28;20054;-57
2023/01/30 04:33:24;;;;;;;33.50;6.20;;;7.00;99.90;;;;;;5008934;28;20054;-58
2023/01/30 04:35:52;;;;;;;33.08;5.60;;;7.00;99.90;;;;;;5008425;28;20050;-57
2023/01/30 04:38:19;;;;;;;25.33;5.15;;;7.00;99.90;;;;;;5004921;28;20125;-54
2023/01/30 04:40:49;;;;;;;29.77;5.20;;;7.00;99.90;;;;;;5007394;28;20077;-56
2023/01/30 04:43:16;;;;;;;34.33;5.13;;;7.00;99.90;;;;;;5007963;28;20126;-59
2023/01/30 04:45:43;;;;;;;22.77;4.32;;;6.90;99.90;;;;;;5009605;28;20046;-58
2023/01/30 04:48:10;;;;;;;25.80;4.63;;;6.90;99.90;;;;;;5016241;28;20081;-58
2023/01/30 04:50:36;;;;;;;36.15;6.78;;;6.90;99.90;;;;;;5011975;28;20104;-58
2023/01/30 04:53:03;;;;;;;29.98;5.30;;;6.90;99.90;;;;;;5007412;28;20148;-57
2023/01/30 04:55:30;;;;;;;26.85;4.95;;;6.90;99.90;;;;;;5007355;28;20107;-52
2023/01/30 04:57:58;;;;;;;33.50;4.93;;;6.80;99.90;;;;;;5010269;28;20131;-57
2023/01/30 05:00:25;;;;;;;27.10;5.30;;;6.80;99.90;;;;;;5010400;28;20057;-57
2023/01/30 05:02:54;;;;;;;36.65;6.03;;;6.80;99.90;;;;;;5008564;28;20085;-47
2023/01/30 05:05:21;;;;;;;25.23;4.40;;;6.70;99.90;;;;;;5011766;28;20053;-58
2023/01/30 05:07:48;;;;;;;31.05;5.38;;;6.80;99.90;;;;;;5008037;28;20067;-58
2023/01/30 05:10:15;;;;;;;36.50;5.38;;;6.60;99.90;;;;;;5010382;28;20481;-57
2023/01/30 05:12:42;;;;;;;29.95;4.68;;;6.70;99.90;;;;;;5010922;28;20084;-55
2023/01/30 05:15:10;;;;;;;27.88;4.75;;;6.70;99.90;;;;;;5010183;28;20489;-57
2023/01/30 05:17:37;;;;;;;37.72;6.18;;;6.60;99.90;;;;;;5009907;28;20116;-47
2023/01/30 05:20:05;;;;;;;29.70;4.78;;;6.60;99.90;;;;;;5009675;28;20058;-49
2023/01/30 05:22:32;;;;;;;32.75;5.45;;;6.50;99.90;;;;;;5010479;28;20096;-57
2023/01/30 05:24:58;;;;;;;28.48;5.10;;;6.50;99.90;;;;;;5009458;28;20445;-58
2023/01/30 05:27:25;;;;;;;23.60;4.50;;;6.50;99.90;;;;;;5008303;28;20135;-53
2023/01/30 05:29:52;;;;;;;33.80;5.35;;;6.40;99.90;;;;;;5012242;28;20473;-57
2023/01/30 05:32:20;;;;;;;28.90;5.18;;;6.40;99.90;;;;;;5011657;28;20449;-57
2023/01/30 05:34:48;;;;;;;29.95;4.35;;;6.40;99.90;;;;;;5010219;28;20061;-57
2023/01/30 05:37:15;;;;;;;29.52;4.75;;;6.40;99.90;;;;;;5011803;28;20103;-58
2023/01/30 05:39:42;;;;;;;36.03;4.90;;;6.30;99.90;;;;;;5012057;28;20073;-56
2023/01/30 05:42:08;;;;;;;23.08;4.43;;;6.30;99.90;;;;;;5010714;28;20050;-58
2023/01/30 05:44:35;;;;;;;38.05;5.80;;;6.30;99.90;;;;;;5010562;28;20497;-53
2023/01/30 05:47:02;;;;;;;32.55;4.93;;;6.20;99.90;;;;;;5014338;28;20103;-57
2023/01/30 05:49:30;;;;;;;35.13;5.25;;;6.20;99.90;;;;;;4994594;28;20120;-53
2023/01/30 05:51:57;;;;;;;29.48;4.40;;;6.20;99.90;;;;;;5001470;28;21826;-54
2023/01/30 05:54:24;;;;;;;29.75;4.90;;;6.10;99.90;;;;;;5007478;28;20061;-57
2023/01/30 05:56:51;;;;;;;30.10;4.40;;;6.10;99.90;;;;;;5007276;28;20085;-49
2023/01/30 05:59:18;;;;;;;38.85;5.07;;;6.00;99.90;;;;;;5004908;28;20078;-54
2023/01/30 06:01:45;;;;;;;35.15;4.97;;;6.00;99.90;;;;;;5009051;28;20138;-53
2023/01/30 06:04:12;;;;;;;36.63;4.70;;;6.00;99.90;;;;;;5014228;28;20453;-52
2023/01/30 06:06:40;;;;;;;32.72;5.45;;;6.00;99.90;;;;;;5015195;28;20132;-54
2023/01/30 06:09:06;;;;;;;38.00;4.85;;;5.90;99.90;;;;;;5012363;28;20085;-54
2023/01/30 06:11:33;;;;;;;37.53;5.63;;;5.90;99.90;;;;;;5012395;28;20585;-54
2023/01/30 06:14:00;;;;;;;34.13;5.45;;;5.90;99.90;;;;;;5013449;28;20128;-53
2023/01/30 06:16:27;;;;;;;41.42;5.05;;;5.80;99.90;;;;;;5012035;28;20050;-55
2023/01/30 06:18:54;;;;;;;37.45;5.07;;;5.80;99.90;;;;;;5008260;28;20120;-57
2023/01/30 06:21:20;;;;;;;36.97;4.70;;;5.80;99.90;;;;;;5014042;28;20104;-56
2023/01/30 06:23:49;;;;;;;35.05;4.88;;;5.80;99.90;;;;;;5014922;28;20046;-58
2023/01/30 06:26:15;;;;;;;32.97;4.82;;;5.80;99.90;;;;;;5015755;28;20492;-57
2023/01/30 06:28:43;;;;;;;30.60;3.90;;;5.80;99.90;;;;;;5019397;28;20053;-56
2023/01/30 06:31:10;;;;;;;30.15;4.60;;;5.80;99.90;;;;;;5021281;28;20134;-58
2023/01/30 06:33:37;;;;;;;34.20;4.30;;;5.80;99.90;;;;;;4966708;22;20049;-44
2023/01/30 06:36:04;;;;;;;26.25;4.22;;;5.80;99.90;;;;;;4995686;28;20086;-56
2023/01/30 06:38:31;;;;;;;26.60;3.83;;;5.80;99.90;;;;;;5017474;28;20116;-56
2023/01/30 06:40:59;;;;;;;33.40;5.25;;;5.80;99.90;;;;;;5014580;28;20479;-48
2023/01/30 06:43:26;;;;;;;37.13;6.15;;;5.90;99.90;;;;;;5008680;28;20132;-56
2023/01/30 06:45:52;;;;;;;32.95;5.10;;;5.80;99.90;;;;;;5014155;28;20140;-54
2023/01/30 06:48:19;;;;;;;32.97;4.20;;;5.90;99.90;;;;;;5012298;28;20104;-56
2023/01/30 06:50:46;;;;;;;37.85;5.38;;;5.90;99.90;;;;;;5012561;28;20093;-46
2023/01/30 06:53:13;;;;;;;30.85;5.15;;;5.90;99.90;;;;;;5012817;28;20050;-55
2023/01/30 06:55:40;;;;;;;30.38;4.20;;;5.90;99.90;;;;;;5009737;28;20050;-55
2023/01/30 06:58:09;;;;;;;37.95;4.85;;;5.90;99.90;;;;;;5011763;28;20057;-55
2023/01/30 07:00:38;;;;;;;35.00;5.30;;;5.90;99.90;;;;;;5005723;28;20077;-49
2023/01/30 07:03:05;;;;;;;40.15;5.47;;;5.90;99.90;;;;;;5012771;28;20548;-47
2023/01/30 07:05:32;;;;;;;39.05;5.30;;;5.90;99.90;;;;;;5007113;28;20478;-56
2023/01/30 07:07:59;;;;;;;29.77;4.90;;;5.80;99.90;;;;;;5011109;28;20118;-57
2023/01/30 07:10:28;;;;;;;37.10;5.15;;;5.80;99.90;;;;;;4995244;28;20046;-53
2023/01/30 07:12:54;;;;;;;34.08;5.00;;;5.80;99.90;;;;;;5007404;28;20058;-48
2023/01/30 07:15:22;;;;;;;36.00;5.72;;;5.80;99.90;;;;;;4993070;28;20488;-51
2023/01/30 07:17:49;;;;;;;35.80;5.22;;;5.80;99.90;;;;;;4995808;28;20164;-55
2023/01/30 07:20:16;;;;;;;34.17;4.57;;;5.80;99.90;;;;;;5010277;28;20057;-56
2023/01/30 07:22:46;;;;;;;32.63;3.97;;;5.80;99.90;;;;;;5005017;28;20086;-54
2023/01/30 07:25:13;;;;;;;34.35;5.07;;;5.80;99.90;;;;;;5006238;28;20107;-54
2023/01/30 07:27:40;;;;;;;41.10;4.82;;;5.80;99.90;;;;;;5013142;28;20129;-52
2023/01/30 07:30:07;;;;;;;36.70;6.25;;;5.80;99.90;;;;;;5015124;28;20103;-51
2023/01/30 07:32:35;;;;;;;34.83;4.88;;;5.80;99.90;;;;;;5006587;28;20086;-56
2023/01/30 07:35:02;;;;;;;33.85;4.78;;;5.90;99.90;;;;;;5003811;28;20453;-55
2023/01/30 07:37:29;;;;;;;34.00;6.13;;;5.80;99.90;;;;;;4998412;28;20085;-46
2023/01/30 07:39:56;;;;;;;33.63;5.25;;;5.80;99.90;;;;;;5010956;28;20122;-52
2023/01/30 07:42:22;;;;;;;38.92;5.25;;;5.90;99.90;;;;;;5002036;28;20105;-53
2023/01/30 07:44:49;;;;;;;36.35;5.65;;;5.90;99.90;;;;;;5002060;28;20524;-50
2023/01/30 07:47:18;;;;;;;44.65;5.60;;;5.90;99.90;;;;;;5000812;28;20088;-52
2023/01/30 07:49:46;;;;;;;32.65;5.78;;;5.90;99.90;;;;;;5006247;28;20058;-56
2023/01/30 07:52:13;;;;;;;31.77;5.25;;;5.90;99.90;;;;;;5009790;28;20504;-55
2023/01/30 07:54:40;;;;;;;36.42;5.00;;;5.90;99.90;;;;;;4996276;28;20049;-52
2023/01/30 07:57:07;;;;;;;41.28;5.85;;;5.90;99.90;;;;;;4999051;28;20482;-55
2023/01/30 07:59:34;;;;;;;43.58;7.63;;;6.00;99.90;;;;;;5005199;28;20099;-51
2023/01/30 08:02:00;;;;;;;39.05;5.65;;;6.00;99.90;;;;;;5001561;28;20141;-50
2023/01/30 08:04:27;;;;;;;35.22;4.63;;;6.10;99.90;;;;;;4997129;28;20056;-49
2023/01/30 08:06:56;;;;;;;37.25;4.85;;;6.00;99.90;;;;;;5011726;28;20053;-51
2023/01/30 08:09:22;;;;;;;29.58;4.97;;;6.00;99.90;;;;;;4996063;28;20061;-45
2023/01/30 08:11:49;;;;;;;37.42;5.40;;;6.10;99.90;;;;;;5000160;28;20530;-56
2023/01/30 08:14:16;;;;;;;43.95;6.75;;;6.10;99.90;;;;;;4996024;28;20046;-51
2023/01/30 08:16:43;;;;;;;38.90;5.07;;;6.10;99.90;;;;;;5000574;28;20053;-54
2023/01/30 08:19:10;;;;;;;38.25;5.00;;;6.10;99.90;;;;;;5003716;28;20148;-45
2023/01/30 08:21:37;;;;;;;35.40;4.95;;;6.20;99.90;;;;;;5000961;28;20049;-55
2023/01/30 08:24:06;;;;;;;33.97;5.63;;;6.10;99.90;;;;;;4996989;28;20852;-51
2023/01/30 08:26:33;;;;;;;34.80;4.63;;;6.20;99.90;;;;;;5003343;28;20042;-54
2023/01/30 08:28:59;;;;;;;40.88;5.72;;;6.20;99.90;;;;;;4997964;28;20065;-47
2023/01/30 08:31:26;;;;;;;34.95;4.60;;;6.20;99.90;;;;;;5008443;28;20061;-50
2023/01/30 08:33:53;;;;;;;46.60;5.45;;;6.20;99.90;;;;;;5000317;28;20054;-45
2023/01/30 08:36:20;;;;;;;30.85;5.13;;;6.20;99.90;;;;;;4997799;28;20135;-53
2023/01/30 08:38:47;;;;;;;45.92;6.28;;;6.20;99.90;;;;;;5001076;28;20568;-53
2023/01/30 08:41:15;;;;;;;38.67;5.32;;;6.30;99.90;;;;;;4993295;28;20084;-49
2023/01/30 08:43:42;;;;;;;42.63;5.55;;;6.40;99.90;;;;;;5009110;28;20046;-52
2023/01/30 08:46:08;;;;;;;35.65;6.10;;;6.30;99.90;;;;;;5006994;28;20441;-50
2023/01/30 08:48:37;;;;;;;38.08;5.90;;;6.30;99.90;;;;;;4999552;28;20120;-52
2023/01/30 08:51:04;;;;;;;42.25;6.40;;;6.30;99.90;;;;;;5010157;28;20498;-50
2023/01/30 08:53:31;;;;;;;34.47;4.88;;;6.30;99.90;;;;;;5005423;28;20086;-53
2023/01/30 08:55:58;;;;;;;45.70;6.85;;;6.30;99.90;;;;;;5004030;28;20695;-56
2023/01/30 08:58:26;;;;;;;42.55;6.30;;;6.30;99.90;;;;;;5009718;28;20147;-41
2023/01/30 09:00:53;;;;;;;37.47;6.30;;;6.40;99.90;;;;;;5013968;28;20073;-45
2023/01/30 09:03:19;;;;;;;39.80;6.05;;;6.40;99.90;;;;;;5004372;28;20089;-44
2023/01/30 09:05:46;;;;;;;36.33;5.00;;;6.40;99.90;;;;;;5006143;28;20132;-45
2023/01/30 09:08:13;;;;;;;34.22;5.32;;;6.40;99.90;;;;;;4994835;28;20568;-51
2023/01/30 09:10:40;;;;;;;39.45;6.22;;;6.40;99.90;;;;;;4997308;28;20145;-52
2023/01/30 09:13:08;;;;;;;34.50;5.45;;;6.50;99.90;;;;;;4995658;28;20061;-40
2023/01/30 09:15:37;;;;;;;42.75;6.45;;;6.50;99.90;;;;;;4994362;28;20105;-48
2023/01/30 09:18:04;;;;;;;36.60;5.47;;;6.50;99.90;;;;;;4995744;28;20534;-49
2023/01/30 09:20:31;;;;;;;34.95;5.28;;;6.50;99.90;;;;;;4998633;28;20046;-53
2023/01/30 09:22:57;;;;;;;41.63;4.95;;;6.60;99.90;;;;;;4995969;28;20054;-48
2023/01/30 09:25:24;;;;;;;30.85;4.55;;;6.70;99.90;;;;;;4995629;28;20117;-51
2023/01/30 09:27:51;;;;;;;38.88;6.00;;;6.70;99.90;;;;;;4997920;28;20129;-49
2023/01/30 09:30:18;;;;;;;35.38;5.60;;;6.70;99.90;;;;;;5000926;28;20085;-45
2023/01/30 09:32:47;;;;;;;34.25;5.63;;;6.70;99.90;;;;;;4996294;28;20136;-49
2023/01/30 09:35:14;;;;;;;36.40;5.32;;;6.70;99.90;;;;;;5001314;28;20117;-48
2023/01/30 09:37:47;;;;;;;40.90;5.30;;;6.70;99.90;;;;;;5007567;28;20081;-53
2023/01/30 09:40:14;;;;;;;33.53;5.65;;;6.80;99.90;;;;;;5003754;28;20050;-49
2023/01/30 09:43:00;;;;;;;48.03;5.88;;;6.80;99.90;;;;;;5002254;28;20077;-51
2023/01/30 09:45:38;;;;;;;40.22;5.97;;;6.90;99.90;;;;;;5001295;28;20108;-45
2023/01/30 09:48:12;;;;;;;38.05;6.28;;;7.00;99.90;;;;;;5004687;28;20129;-44
2023/01/30 09:50:56;;;;;;;42.83;5.45;;;7.10;99.90;;;;;;4998352;28;20058;-48
2023/01/30 09:53:25;;;;;;;43.95;6.40;;;7.10;99.90;;;;;;5007766;28;20433;-52
2023/01/30 09:55:52;;;;;;;46.22;5.55;;;7.20;99.90;;;;;;5001429;28;20093;-49
2023/01/30 09:58:20;;;;;;;32.38;5.07;;;7.10;99.90;;;;;;5004037;28;20074;-47
2023/01/30 10:00:47;;;;;;;36.55;5.28;;;7.20;99.90;;;;;;5013156;28;20061;-53
2023/01/30 10:03:17;;;;;;;40.33;6.18;;;7.10;99.90;;;;;;5005831;28;20050;-49
2023/01/30 10:05:46;;;;;;;38.65;5.55;;;7.10;99.90;;;;;;5008643;28;20049;-52
2023/01/30 10:08:47;;;;;;;34.40;5.07;;;7.20;99.90;;;;;;4996693;28;20078;-48
2023/01/30 10:11:21;;;;;;;37.57;6.03;;;7.20;99.90;;;;;;5010206;28;20565;-46
2023/01/30 10:14:10;;;;;;;40.78;5.80;;;7.20;99.90;;;;;;5015517;28;20073;-46
2023/01/30 10:16:39;;;;;;;44.20;5.10;;;7.20;99.90;;;;;;5009545;28;20050;-49
2023/01/30 10:19:32;;;;;;;36.97;5.35;;;7.30;99.90;;;;;;5008118;28;20571;-47
2023/01/30 10:22:01;;;;;;;36.17;5.95;;;7.30;99.90;;;;;;4998761;28;20170;-51
2023/01/30 10:24:37;;;;;;;41.95;5.45;;;7.40;99.90;;;;;;5004649;28;20188;-41
2023/01/30 10:27:04;;;;;;;39.20;5.50;;;7.50;99.90;;;;;;4995632;28;20109;-48
2023/01/30 10:29:32;;;;;;;37.72;5.78;;;7.40;99.90;;;;;;5006321;28;20116;-50
2023/01/30 10:32:01;;;;;;;38.95;6.45;;;7.50;99.90;;;;;;5010737;28;20069;-49
2023/01/30 10:34:31;;;;;;;34.28;5.35;;;7.60;99.90;;;;;;5013866;28;20132;-43
2023/01/30 10:36:59;;;;;;;45.38;6.25;;;7.60;99.90;;;;;;5008880;28;20580;-50
2023/01/30 10:39:28;;;;;;;33.38;5.70;;;7.60;99.90;;;;;;5008946;28;20105;-49
2023/01/30 10:41:58;;;;;;;41.72;5.43;;;7.60;99.90;;;;;;5001663;28;20516;-43
2023/01/30 10:44:25;;;;;;;33.60;5.63;;;7.60;99.90;;;;;;5004450;28;20077;-47
2023/01/30 10:47:11;;;;;;;38.22;6.20;;;7.60;99.90;;;;;;4998566;28;20126;-45
2023/01/30 10:49:41;;;;;;;32.35;4.95;;;7.60;99.90;;;;;;4992573;28;20089;-53
2023/01/30 10:52:18;;;;;;;34.22;5.50;;;7.60;99.90;;;;;;5000807;28;20467;-46
2023/01/30 10:54:48;;;;;;;39.47;5.70;;;7.60;99.90;;;;;;5004410;28;20177;-46
2023/01/30 10:57:17;;;;;;;41.03;5.40;;;7.70;99.90;;;;;;4995914;28;20459;-43
2023/01/30 10:59:50;;;;;;;38.83;5.55;;;7.70;99.90;;;;;;5003519;28;20513;-52
2023/01/30 11:02:24;;;;;;;37.03;6.47;;;7.70;99.90;;;;;;4998756;28;20455;-43
2023/01/30 11:04:56;;;;;;;35.75;5.30;;;7.80;99.90;;;;;;5004842;28;20050;-47
2023/01/30 11:07:23;;;;;;;39.05;7.10;;;7.90;99.90;;;;;;4998388;28;20513;-45
2023/01/30 11:09:50;;;;;;;43.15;6.53;;;8.00;99.90;;;;;;4997424;28;20046;-50
2023/01/30 11:12:17;;;;;;;33.92;6.40;;;8.00;99.90;;;;;;5005498;28;20077;-40
2023/01/30 11:14:51;;;;;;;34.47;5.93;;;8.00;99.90;;;;;;5002193;28;20046;-48
2023/01/30 11:17:18;;;;;;;33.63;6.22;;;7.90;99.90;;;;;;5008922;28;20406;-55
2023/01/30 11:19:45;;;;;;;41.05;6.18;;;7.80;99.90;;;;;;4997491;28;20502;-54
2023/01/30 11:22:14;;;;;;;35.10;5.55;;;7.70;99.90;;;;;;5009885;28;20054;-52
2023/01/30 11:24:41;;;;;;;43.70;7.75;;;7.70;99.90;;;;;;5010813;28;20108;-54
2023/01/30 11:27:12;;;;;;;26.30;4.38;;;7.80;99.90;;;;;;5007186;28;20498;-53
2023/01/30 11:29:39;;;;;;;24.88;3.85;;;7.90;99.90;;;;;;5025202;28;20139;-52
2023/01/30 11:32:07;;;;;;;29.35;5.07;;;8.10;99.90;;;;;;5032371;28;20379;-52
2023/01/30 11:34:34;;;;;;;28.23;4.40;;;8.10;99.90;;;;;;5004442;28;20109;-50
2023/01/30 11:37:15;;;;;;;34.20;4.32;;;8.10;99.90;;;;;;5005694;28;20113;-44
2023/01/30 11:39:48;;;;;;;32.38;5.15;;;8.20;99.90;;;;;;4995652;28;20085;-50
2023/01/30 11:42:15;;;;;;;27.55;4.72;;;8.20;99.90;;;;;;5001045;28;20084;-46
2023/01/30 11:44:42;;;;;;;26.80;4.30;;;8.20;99.90;;;;;;4999476;28;20045;-53
2023/01/30 11:47:09;;;;;;;37.00;5.60;;;8.30;99.90;;;;;;5009876;28;20038;-50
2023/01/30 11:49:37;;;;;;;32.65;5.53;;;8.30;99.90;;;;;;5010648;28;20061;-54
2023/01/30 11:52:04;;;;;;;33.42;6.18;;;8.20;99.90;;;;;;5011142;28;20046;-49
2023/01/30 11:54:34;;;;;;;36.13;5.20;;;8.10;99.90;;;;;;5009802;28;20139;-51
2023/01/30 11:57:02;;;;;;;26.60;4.80;;;8.00;99.90;;;;;;5007335;28;20045;-47
2023/01/30 11:59:30;;;;;;;31.92;5.00;;;7.80;99.90;;;;;;4994605;28;20074;-49
2023/01/30 12:02:04;;;;;;;27.20;5.15;;;7.70;99.90;;;;;;5007140;28;20129;-48
2023/01/30 12:04:31;;;;;;;27.70;4.20;;;7.60;99.90;;;;;;4996446;28;20056;-49
2023/01/30 12:07:05;;;;;;;21.23;3.92;;;7.60;99.90;;;;;;5006262;28;20108;-47
2023/01/30 12:09:34;;;;;;;27.15;4.55;;;7.50;99.90;;;;;;4993877;28;20124;-46
2023/01/30 12:12:01;;;;;;;20.20;3.30;;;7.40;99.90;;;;;;5001197;28;20050;-49
2023/01/30 12:14:35;;;;;;;15.57;2.33;;;7.30;99.90;;;;;;5005891;28;20096;-49
2023/01/30 12:17:05;;;;;;;13.25;2.25;;;7.20;99.90;;;;;;5001030;28;20049;-49
2023/01/30 12:19:56;;;;;;;13.82;2.85;;;7.10;99.90;;;;;;5004679;28;20132;-47
2023/01/30 12:22:26;;;;;;;17.27;2.55;;;7.20;99.90;;;;;;5007709;28;20080;-49
2023/01/30 12:24:58;;;;;;;18.45;2.40;;;7.30;99.90;;;;;;5008621;28;20571;-50
2023/01/30 12:27:28;;;;;;;18.25;2.90;;;7.40;99.90;;;;;;5002420;28;20490;-44
2023/01/30 12:30:00;;;;;;;21.27;3.95;;;7.60;99.90;;;;;;5007388;28;20415;-48
2023/01/30 12:32:28;;;;;;;26.15;3.58;;;7.70;99.90;;;;;;4995222;28;20050;-43
2023/01/30 12:34:55;;;;;;;26.23;3.72;;;7.90;99.90;;;;;;5009161;28;20049;-49
2023/01/30 12:37:51;;;;;;;29.17;3.95;;;7.90;99.90;;;;;;5002357;28;20177;-52
2023/01/30 12:40:27;;;;;;;32.63;3.83;;;8.00;99.90;;;;;;4996069;28;20050;-53
2023/01/30 12:43:19;;;;;;;25.58;3.85;;;8.00;99.90;;;;;;5002950;28;20081;-45
2023/01/30 12:45:48;;;;;;;22.48;3.95;;;8.00;99.90;;;;;;4997479;28;20082;-47
2023/01/30 12:48:33;;;;;;;24.60;4.03;;;8.00;99.90;;;;;;4995251;28;20118;-47
2023/01/30 12:51:05;;;;;;;27.88;4.00;;;8.00;99.90;;;;;;4994137;28;20136;-48
2023/01/30 12:53:33;;;;;;;;;;;7.90;99.90;;;;;;5001848;28;20061;-40
2023/01/30 12:56:24;;;;;;;26.55;3.10;;;7.90;99.90;;;;;;5004233;28;20376;-51
2023/01/30 12:58:54;;;;;;;24.75;4.07;;;7.90;99.90;;;;;;4998963;28;20599;-49
2023/01/30 13:01:24;;;;;;;19.83;3.78;;;7.80;99.90;;;;;;5008328;28;20082;-49
2023/01/30 13:03:53;;;;;;;26.73;3.38;;;7.80;99.90;;;;;;4996014;28;20651;-48